Time;durP1;ratioP1;P1;durP2;ratioP2;P2;SDS_P1;SDS_P2;PMS_P1;PMS_P2;Temp;Humidity;BMP_temperature;BMP_pressure;BME280_temperature;BME280_humidity;BME280_pressure;Samples;Min_cycle;Max_cycle;Signal;HPM_P1;HPM_P2
2023/06/29 00:00:22;;;;;;;8.75;3.10;;;;;;;16.25;70.27;101091.84;4976347;28;20352;-57
2023/06/29 00:02:49;;;;;;;6.68;2.40;;;;;;;16.10;71.17;101086.97;4976029;28;20031;-57
2023/06/29 00:05:18;;;;;;;5.47;2.33;;;;;;;16.24;71.32;101082.09;4976289;28;20118;-57
2023/06/29 00:07:44;;;;;;;9.25;2.78;;;;;;;16.32;70.46;101080.91;4976014;28;20038;-57
2023/06/29 00:10:10;;;;;;;5.18;2.58;;;;;;;16.10;70.83;101094.22;4976294;28;20022;-56
2023/06/29 00:12:37;;;;;;;5.78;2.50;;;;;;;16.08;71.35;101085.53;4975886;28;20023;-57
2023/06/29 00:15:04;;;;;;;7.07;2.88;;;;;;;16.07;71.40;101084.72;4975888;28;20082;-57
2023/06/29 00:17:30;;;;;;;6.00;2.80;;;;;;;16.15;71.57;101083.53;4976157;28;20077;-56
2023/06/29 00:19:56;;;;;;;5.90;2.95;;;;;;;15.83;72.20;101088.50;4975817;28;20035;-57
2023/06/29 00:22:22;;;;;;;5.85;3.08;;;;;;;15.89;72.83;101084.84;4975729;28;20031;-57
2023/06/29 00:24:55;;;;;;;7.35;3.50;;;;;;;16.07;72.41;101089.28;4975981;28;20026;-57
2023/06/29 00:27:22;;;;;;;6.85;3.30;;;;;;;16.00;72.40;101092.13;4975660;28;20050;-56
2023/06/29 00:29:48;;;;;;;10.63;3.20;;;;;;;16.34;71.62;101089.63;4975732;28;20559;-57
2023/06/29 00:32:15;;;;;;;9.48;3.22;;;;;;;16.24;71.42;101092.09;4975872;28;20027;-56
2023/06/29 00:34:41;;;;;;;5.90;2.80;;;;;;;16.06;71.61;101091.19;4958213;28;20034;-57
2023/06/29 00:37:07;;;;;;;8.02;2.95;;;;;;;16.00;72.26;101089.44;4975795;28;20058;-56
2023/06/29 00:39:34;;;;;;;11.00;3.42;;;;;;;16.04;71.93;101092.44;4975676;28;20023;-56
2023/06/29 00:42:02;;;;;;;14.70;3.75;;;;;;;15.89;71.99;101092.94;4975407;28;20487;-57
2023/06/29 00:44:28;;;;;;;10.38;3.35;;;;;;;15.88;72.52;101099.41;4975140;28;20491;-56
2023/06/29 00:46:55;;;;;;;11.23;3.75;;;;;;;16.10;72.48;101110.41;4975393;28;20022;-56
2023/06/29 00:49:22;;;;;;;8.63;2.97;;;;;;;15.85;72.31;101105.25;4974596;28;20023;-57
2023/06/29 00:51:50;;;;;;;8.27;3.03;;;;;;;15.79;72.93;101098.94;4975120;28;20023;-57
2023/06/29 00:54:20;;;;;;;11.18;2.97;;;;;;;15.76;73.29;101101.25;4975420;28;20050;-57
2023/06/29 00:56:47;;;;;;;6.55;3.38;;;;;;;15.79;73.60;101095.41;4975616;28;20078;-57
2023/06/29 00:59:13;;;;;;;7.00;3.60;;;;;;;15.48;74.03;101099.19;4975156;28;20031;-57
2023/06/29 01:01:40;;;;;;;9.70;3.70;;;;;;;15.28;74.72;101096.84;4975088;28;20039;-57
2023/06/29 01:04:17;;;;;;;13.63;4.03;;;;;;;15.30;75.22;101084.75;4975228;28;20390;-58
2023/06/29 01:07:06;;;;;;;12.35;3.42;;;;;;;15.28;75.20;101088.75;4975675;28;20046;-59
2023/06/29 01:09:33;;;;;;;9.95;3.33;;;;;;;15.40;74.69;101089.59;4975246;28;20022;-58
2023/06/29 01:12:01;;;;;;;6.40;3.08;;;;;;;15.44;74.59;101085.38;4975646;28;20031;-58
2023/06/29 01:14:30;;;;;;;9.02;3.85;;;;;;;15.48;74.83;101085.72;4974715;28;20466;-58
2023/06/29 01:16:58;;;;;;;7.55;3.30;;;;;;;15.27;75.17;101098.72;4974784;28;20022;-58
2023/06/29 01:19:29;;;;;;;7.30;3.13;;;;;;;15.26;75.49;101088.13;4975184;28;20488;-57
2023/06/29 01:22:12;;;;;;;11.95;3.17;;;;;;;15.30;75.16;101083.94;4974708;28;20019;-57
2023/06/29 01:24:40;;;;;;;9.55;3.38;;;;;;;15.35;75.70;101086.75;4974588;28;20054;-57
2023/06/29 01:27:12;;;;;;;9.25;3.42;;;;;;;15.28;75.38;101084.16;4974452;28;20517;-57
2023/06/29 01:29:39;;;;;;;6.45;2.85;;;;;;;15.11;75.86;101093.16;4974201;28;20492;-57
2023/06/29 01:32:10;;;;;;;7.53;3.17;;;;;;;15.16;76.25;101094.09;4974431;28;20033;-56
2023/06/29 01:34:37;;;;;;;23.83;3.90;;;;;;;14.88;77.30;101094.72;4974905;28;20022;-57
2023/06/29 01:37:20;;;;;;;13.13;3.33;;;;;;;15.17;76.71;101094.94;4974333;28;20026;-57
2023/06/29 01:40:09;;;;;;;8.55;2.97;;;;;;;14.96;77.17;101091.69;4974929;28;20034;-57
2023/06/29 01:42:37;;;;;;;7.03;3.08;;;;;;;14.92;78.03;101085.09;4974852;28;20034;-57
2023/06/29 01:45:06;;;;;;;5.55;2.20;;;;;;;14.81;78.31;101093.97;4974146;28;20507;-58
2023/06/29 01:47:34;;;;;;;4.57;2.47;;;;;;;15.00;79.10;101097.44;4974298;28;20030;-58
2023/06/29 01:50:02;;;;;;;5.70;2.58;;;;;;;14.96;78.34;101083.59;4974329;28;20505;-57
2023/06/29 01:52:28;;;;;;;8.60;3.40;;;;;;;14.39;80.18;101093.03;4974282;28;20356;-58
2023/06/29 01:54:54;;;;;;;8.85;3.30;;;;;;;14.46;80.18;101093.75;4974160;28;20031;-57
2023/06/29 01:57:21;;;;;;;7.93;2.85;;;;;;;14.40;81.17;101095.47;4974053;28;20031;-57
2023/06/29 01:59:47;;;;;;;9.10;2.47;;;;;;;14.14;82.00;101093.88;4973391;28;20423;-57
2023/06/29 02:02:13;;;;;;;5.53;2.65;;;;;;;14.18;82.02;101091.59;4974150;28;20026;-57
2023/06/29 02:04:40;;;;;;;7.65;3.30;;;;;;;14.11;82.33;101096.22;4974052;28;20034;-58
2023/06/29 02:07:06;;;;;;;7.70;3.33;;;;;;;14.07;82.98;101089.63;4974290;28;20023;-57
2023/06/29 02:09:32;;;;;;;4.25;2.67;;;;;;;13.95;83.48;101100.31;4974088;28;20037;-58
2023/06/29 02:11:58;;;;;;;6.93;3.22;;;;;;;13.93;83.23;101119.34;4940978;28;20047;-58
2023/06/29 02:14:24;;;;;;;9.70;3.33;;;;;;;13.92;83.69;101109.63;4973939;28;20030;-58
2023/06/29 02:16:51;;;;;;;8.23;2.58;;;;;;;14.04;84.11;101114.28;4973922;28;20104;-58
2023/06/29 02:19:18;;;;;;;6.35;2.63;;;;;;;14.16;83.29;101105.28;4974405;28;20054;-58
2023/06/29 02:21:44;;;;;;;7.07;2.42;;;;;;;14.09;82.68;101098.31;4974293;28;20030;-57
2023/06/29 02:24:12;;;;;;;5.57;2.58;;;;;;;13.88;83.38;101113.84;4973925;28;20126;-57
2023/06/29 02:26:39;;;;;;;7.60;2.55;;;;;;;13.87;84.27;101108.66;4974278;28;20109;-58
2023/06/29 02:29:05;;;;;;;5.47;2.42;;;;;;;13.79;84.39;101103.56;4973953;28;20059;-58
2023/06/29 02:31:31;;;;;;;6.72;2.85;;;;;;;13.86;84.05;101101.63;4974259;28;20422;-58
2023/06/29 02:33:57;;;;;;;3.97;2.42;;;;;;;13.68;84.83;101105.09;4974182;28;20029;-57
2023/06/29 02:36:23;;;;;;;5.55;2.50;;;;;;;13.67;85.34;101100.78;4973920;28;20126;-58
2023/06/29 02:38:50;;;;;;;4.70;2.78;;;;;;;13.65;85.31;101114.44;4973797;28;20027;-58
2023/06/29 02:41:16;;;;;;;8.88;3.08;;;;;;;13.63;85.50;101102.25;4973891;28;20018;-58
2023/06/29 02:43:42;;;;;;;6.97;3.45;;;;;;;13.40;86.63;101106.34;4973858;28;20125;-57
2023/06/29 02:46:08;;;;;;;6.07;3.08;;;;;;;13.43;86.73;101105.91;4973745;28;20395;-58
2023/06/29 02:48:35;;;;;;;5.38;3.00;;;;;;;13.25;87.63;101113.91;4973758;28;20023;-59
2023/06/29 02:51:01;;;;;;;10.57;3.47;;;;;;;13.14;88.19;101115.38;4974118;28;20042;-58
2023/06/29 02:53:27;;;;;;;6.13;2.38;;;;;;;13.21;87.93;101112.69;4973742;28;20047;-60
2023/06/29 02:55:53;;;;;;;10.68;2.95;;;;;;;13.13;87.83;101110.22;4973674;28;20114;-58
2023/06/29 02:58:20;;;;;;;6.47;2.75;;;;;;;13.24;87.58;101114.13;4973573;28;20085;-58
2023/06/29 03:00:46;;;;;;;4.88;2.10;;;;;;;13.14;88.52;101117.25;4973745;28;20027;-59
2023/06/29 03:03:12;;;;;;;5.15;2.63;;;;;;;13.25;88.58;101121.97;4974039;28;20464;-58
2023/06/29 03:05:38;;;;;;;5.47;2.20;;;;;;;13.08;88.59;101113.56;4973498;28;20114;-58
2023/06/29 03:08:05;;;;;;;6.43;2.40;;;;;;;13.02;89.18;101118.97;4956273;28;20387;-57
2023/06/29 03:10:31;;;;;;;6.50;2.60;;;;;;;13.01;89.33;101125.41;4974010;28;20086;-57
2023/06/29 03:12:57;;;;;;;12.10;3.40;;;;;;;12.79;90.24;101112.28;4977229;28;20035;-57
2023/06/29 03:15:23;;;;;;;5.97;2.38;;;;;;;12.88;90.33;101115.53;4959766;28;20081;-57
2023/06/29 03:17:49;;;;;;;5.70;2.47;;;;;;;12.85;90.33;101114.09;4976919;28;20050;-57
2023/06/29 03:20:16;;;;;;;4.70;2.60;;;;;;;12.82;90.65;101113.69;4959571;28;20550;-57
2023/06/29 03:22:43;;;;;;;3.65;1.90;;;;;;;12.78;90.47;101113.31;4959468;28;20089;-57
2023/06/29 03:25:13;;;;;;;5.32;2.30;;;;;;;12.82;90.18;101114.50;4976957;28;20022;-57
2023/06/29 03:27:39;;;;;;;6.68;2.60;;;;;;;12.89;90.49;101114.50;4976726;28;20453;-57
2023/06/29 03:30:06;;;;;;;5.35;2.42;;;;;;;12.83;90.90;101115.38;4976721;28;20495;-57
2023/06/29 03:32:32;;;;;;;4.82;2.78;;;;;;;12.77;90.72;101110.81;4976725;28;20038;-58
2023/06/29 03:34:58;;;;;;;5.50;2.90;;;;;;;12.72;91.40;101116.84;4976781;28;20058;-57
2023/06/29 03:37:25;;;;;;;6.45;2.70;;;;;;;12.58;92.06;101101.81;4976599;28;20120;-57
2023/06/29 03:39:51;;;;;;;6.45;2.70;;;;;;;12.64;92.12;101122.47;4959514;28;20033;-58
2023/06/29 03:42:18;;;;;;;6.65;2.70;;;;;;;12.65;91.24;101111.50;4976896;28;20457;-57
2023/06/29 03:44:44;;;;;;;5.78;2.78;;;;;;;12.57;91.45;101110.91;4976359;28;20097;-58
2023/06/29 03:47:10;;;;;;;4.63;2.55;;;;;;;12.53;91.88;101109.69;4976520;28;20041;-58
2023/06/29 03:49:36;;;;;;;11.75;3.17;;;;;;;12.56;91.60;101109.28;4977194;28;20023;-59
2023/06/29 03:52:03;;;;;;;6.43;2.72;;;;;;;12.61;92.19;101112.16;4976915;28;20031;-59
2023/06/29 03:54:29;;;;;;;5.88;2.90;;;;;;;12.64;91.38;101112.53;4976434;28;20027;-59
2023/06/29 03:56:55;;;;;;;7.97;2.17;;;;;;;12.54;90.98;101108.66;4959113;28;20031;-59
2023/06/29 03:59:21;;;;;;;6.00;2.47;;;;;;;12.42;92.01;101112.00;4976412;28;20486;-59
2023/06/29 04:01:47;;;;;;;5.57;2.35;;;;;;;12.35;93.09;101123.78;4958925;28;20031;-59
2023/06/29 04:04:14;;;;;;;6.97;2.40;;;;;;;12.38;92.77;101118.84;4976575;28;20019;-58
2023/06/29 04:06:40;;;;;;;9.65;2.80;;;;;;;12.31;93.04;101115.31;4976089;28;20042;-57
2023/06/29 04:09:06;;;;;;;7.60;2.10;;;;;;;12.32;92.82;101126.88;4975996;28;20034;-57
2023/06/29 04:11:32;;;;;;;9.02;2.30;;;;;;;12.29;93.04;101125.47;4976071;28;20105;-58
2023/06/29 04:13:59;;;;;;;3.90;2.22;;;;;;;12.35;92.52;101132.66;4976163;28;20066;-59
2023/06/29 04:16:25;;;;;;;6.97;2.85;;;;;;;12.18;92.99;101134.16;4975932;28;20045;-58
2023/06/29 04:18:51;;;;;;;5.00;2.53;;;;;;;12.00;94.34;101137.50;4958504;28;20490;-58
2023/06/29 04:21:17;;;;;;;6.07;3.03;;;;;;;12.20;93.80;101126.72;4975790;28;20027;-58
2023/06/29 04:23:44;;;;;;;7.93;2.85;;;;;;;12.17;93.83;101127.16;4975349;28;20018;-58
2023/06/29 04:26:10;;;;;;;11.30;3.45;;;;;;;12.16;94.07;101128.19;4975710;28;20467;-58
2023/06/29 04:28:36;;;;;;;10.18;3.03;;;;;;;12.20;93.80;101131.25;4975816;28;20023;-58
2023/06/29 04:31:03;;;;;;;6.70;3.15;;;;;;;12.17;93.75;101132.50;4975750;28;20023;-58
2023/06/29 04:33:29;;;;;;;7.13;3.10;;;;;;;12.14;93.99;101128.38;4958321;28;20034;-58
2023/06/29 04:35:55;;;;;;;6.90;2.80;;;;;;;12.16;94.35;101125.50;4975633;28;20383;-58
2023/06/29 04:38:25;;;;;;;6.88;3.08;;;;;;;12.28;94.14;101131.06;4975389;28;20035;-59
2023/06/29 04:41:03;;;;;;;6.07;3.05;;;;;;;12.22;93.84;101140.75;4975498;28;20031;-59
2023/06/29 04:43:30;;;;;;;7.53;3.13;;;;;;;12.19;93.41;101151.91;4975145;28;20058;-59
2023/06/29 04:45:56;;;;;;;7.60;2.80;;;;;;;12.18;94.25;101152.13;4975590;28;20030;-57
2023/06/29 04:48:29;;;;;;;7.32;2.80;;;;;;;12.22;94.56;101156.03;4975372;28;20030;-57
2023/06/29 04:51:07;;;;;;;7.13;2.72;;;;;;;12.15;94.97;101156.03;4975275;28;20031;-57
2023/06/29 04:53:36;;;;;;;10.27;2.55;;;;;;;12.03;94.82;101157.69;4975273;28;20113;-57
2023/06/29 04:56:03;;;;;;;6.38;3.00;;;;;;;12.20;94.88;101164.28;4958239;28;20174;-58
2023/06/29 04:58:29;;;;;;;6.63;2.72;;;;;;;12.17;94.58;101163.91;4975093;28;20026;-59
2023/06/29 05:00:56;;;;;;;5.03;2.38;;;;;;;12.21;93.79;101165.94;4975049;28;20027;-58
2023/06/29 05:03:24;;;;;;;6.05;3.13;;;;;;;12.17;94.55;101167.41;4975078;28;20390;-58
2023/06/29 05:05:50;;;;;;;6.50;3.08;;;;;;;12.19;94.70;101168.00;4974966;28;20046;-58
2023/06/29 05:08:17;;;;;;;5.45;2.20;;;;;;;12.07;95.00;101177.72;4975115;28;20031;-59
2023/06/29 05:10:43;;;;;;;8.93;2.75;;;;;;;12.15;94.34;101167.59;4975172;28;20100;-59
2023/06/29 05:13:09;;;;;;;10.00;3.15;;;;;;;12.17;94.58;101180.81;4974915;28;20034;-57
2023/06/29 05:15:36;;;;;;;7.97;3.28;;;;;;;12.20;94.30;101179.56;4975168;28;20046;-57
2023/06/29 05:18:02;;;;;;;6.80;2.63;;;;;;;12.20;94.10;101179.56;4974786;28;20027;-57
2023/06/29 05:20:28;;;;;;;4.70;2.83;;;;;;;12.14;94.57;101186.59;4974730;28;20029;-58
2023/06/29 05:22:55;;;;;;;8.00;2.67;;;;;;;12.17;94.45;101188.03;4974975;28;20030;-58
2023/06/29 05:25:21;;;;;;;8.48;2.63;;;;;;;12.19;94.11;101186.78;4974590;28;20030;-57
2023/06/29 05:27:47;;;;;;;8.95;2.70;;;;;;;12.07;94.24;101180.41;4974621;28;20042;-57
2023/06/29 05:30:14;;;;;;;4.40;2.30;;;;;;;12.13;94.22;101184.94;4974661;28;20023;-57
2023/06/29 05:32:40;;;;;;;7.13;2.65;;;;;;;12.22;93.65;101186.38;4974479;28;20027;-57
2023/06/29 05:35:06;;;;;;;4.93;2.35;;;;;;;12.39;92.84;101186.78;4974358;28;20475;-57
2023/06/29 05:37:33;;;;;;;6.43;2.30;;;;;;;12.28;92.84;101177.50;4974286;28;20035;-57
2023/06/29 05:39:59;;;;;;;8.70;2.53;;;;;;;12.26;92.93;101189.47;4974286;28;20027;-57
2023/06/29 05:42:26;;;;;;;5.10;2.08;;;;;;;12.38;92.67;101185.94;4974389;28;20019;-57
2023/06/29 05:44:53;;;;;;;7.50;2.20;;;;;;;12.37;92.57;101180.78;4974086;28;20463;-57
2023/06/29 05:47:19;;;;;;;4.43;2.35;;;;;;;12.35;92.63;101177.47;4974170;28;20406;-57
2023/06/29 05:49:46;;;;;;;3.80;1.77;;;;;;;12.30;92.48;101178.09;4974647;28;20022;-57
2023/06/29 05:52:12;;;;;;;5.50;2.00;;;;;;;12.30;92.22;101180.78;4974219;28;20038;-57
2023/06/29 05:54:38;;;;;;;5.57;2.33;;;;;;;12.25;92.72;101177.91;4974367;28;20058;-57
2023/06/29 05:57:05;;;;;;;5.68;1.70;;;;;;;12.33;92.00;101190.28;4974123;28;20026;-57
2023/06/29 05:59:31;;;;;;;4.35;1.73;;;;;;;12.33;92.18;101193.81;4974344;28;20463;-58
2023/06/29 06:01:57;;;;;;;4.78;1.77;;;;;;;12.27;92.57;101183.91;4973948;28;20238;-57
2023/06/29 06:04:24;;;;;;;5.93;1.90;;;;;;;12.21;93.07;101182.03;4974439;28;20473;-57
2023/06/29 06:06:50;;;;;;;6.30;1.92;;;;;;;12.30;92.72;101180.78;4973903;28;20074;-57
2023/06/29 06:09:17;;;;;;;4.90;1.92;;;;;;;12.35;92.49;101193.59;4973970;28;20479;-57
2023/06/29 06:11:43;;;;;;;6.47;2.00;;;;;;;12.33;92.71;101201.84;4974280;28;20132;-57
2023/06/29 06:14:09;;;;;;;1.85;1.27;;;;;;;12.30;93.16;101191.53;4974028;28;20023;-57
2023/06/29 06:16:36;;;;;;;4.70;1.75;;;;;;;12.30;93.02;101186.16;4974099;28;20038;-57
2023/06/29 06:19:02;;;;;;;2.42;1.60;;;;;;;12.27;94.02;101183.06;4974218;28;20034;-57
2023/06/29 06:21:29;;;;;;;5.85;1.90;;;;;;;12.20;94.81;101190.28;4973835;28;20109;-57
2023/06/29 06:23:55;;;;;;;3.88;1.58;;;;;;;12.15;95.31;101181.00;4974343;28;20030;-57
2023/06/29 06:26:21;;;;;;;3.17;1.50;;;;;;;12.22;94.54;101181.03;4973915;28;20035;-57
2023/06/29 06:28:47;;;;;;;5.25;1.80;;;;;;;12.12;94.95;101178.75;4973869;28;20027;-57
2023/06/29 06:31:13;;;;;;;3.58;1.67;;;;;;;12.20;94.63;101185.75;4974024;28;20483;-57
2023/06/29 06:33:40;;;;;;;2.92;1.65;;;;;;;12.20;94.42;101184.94;4974415;28;20027;-57
2023/06/29 06:36:07;;;;;;;2.58;1.70;;;;;;;12.14;94.36;101175.84;4973950;28;20042;-57
2023/06/29 06:38:33;;;;;;;3.10;1.52;;;;;;;12.17;94.54;101177.31;4974080;28;20023;-57
2023/06/29 06:41:00;;;;;;;5.75;1.70;;;;;;;12.27;94.05;101175.84;4973987;28;20023;-57
2023/06/29 06:43:26;;;;;;;3.55;1.80;;;;;;;12.24;94.69;101181.63;4973717;28;20065;-57
2023/06/29 06:45:55;;;;;;;2.70;1.50;;;;;;;12.25;94.32;101182.44;4974867;28;20035;-57
2023/06/29 06:48:21;;;;;;;3.47;1.67;;;;;;;12.28;93.85;101182.03;4977544;28;20030;-57
2023/06/29 06:50:47;;;;;;;3.95;2.10;;;;;;;12.23;94.05;101188.03;4977343;28;20023;-58
2023/06/29 06:53:14;;;;;;;4.47;1.80;;;;;;;12.27;94.03;101175.00;4977738;28;20023;-57
2023/06/29 06:55:40;;;;;;;3.17;1.80;;;;;;;12.29;94.93;101173.78;4977311;28;20027;-58
2023/06/29 06:58:06;;;;;;;4.43;1.85;;;;;;;12.29;95.30;101170.28;4977337;28;20042;-57
2023/06/29 07:00:32;;;;;;;5.35;1.88;;;;;;;12.38;94.65;101177.03;4977562;28;20023;-58
2023/06/29 07:02:59;;;;;;;2.80;1.33;;;;;;;12.33;94.55;101180.38;4977118;28;20411;-58
2023/06/29 07:05:25;;;;;;;3.90;1.55;;;;;;;12.34;94.45;101176.66;4976958;28;20065;-58
2023/06/29 07:07:53;;;;;;;4.00;1.55;;;;;;;12.34;94.78;101176.66;4977511;28;20023;-58
2023/06/29 07:10:19;;;;;;;3.65;1.42;;;;;;;12.37;94.61;101173.53;4976975;28;20035;-58
2023/06/29 07:12:46;;;;;;;2.85;1.63;;;;;;;12.32;94.44;101178.72;4977043;28;20097;-57
2023/06/29 07:15:12;;;;;;;4.53;1.60;;;;;;;12.33;94.44;101180.38;4977008;28;20157;-58
2023/06/29 07:17:38;;;;;;;3.90;1.42;;;;;;;12.34;94.43;101165.91;4976894;28;20161;-58
2023/06/29 07:20:06;;;;;;;3.08;1.42;;;;;;;12.41;94.30;101160.53;4976937;28;20048;-58
2023/06/29 07:22:32;;;;;;;4.50;1.13;;;;;;;12.28;94.02;101166.75;4976983;28;20031;-58
2023/06/29 07:25:00;;;;;;;2.22;1.10;;;;;;;12.31;94.25;101160.97;4976636;28;20376;-57
2023/06/29 07:27:26;;;;;;;1.85;1.02;;;;;;;12.28;93.88;101166.75;4976788;28;20030;-57
2023/06/29 07:29:53;;;;;;;5.10;1.40;;;;;;;12.32;93.95;101162.59;4976768;28;20062;-57
2023/06/29 07:32:19;;;;;;;5.45;1.50;;;;;;;12.26;94.65;101168.81;4976628;28;20027;-57
2023/06/29 07:34:46;;;;;;;2.60;1.20;;;;;;;12.30;94.06;101159.31;4976601;28;20051;-58
2023/06/29 07:37:12;;;;;;;2.33;1.05;;;;;;;12.32;94.44;101161.78;4977371;28;20035;-58
2023/06/29 07:39:38;;;;;;;4.70;1.33;;;;;;;12.29;94.34;101156.84;4976633;28;20026;-57
2023/06/29 07:42:04;;;;;;;2.80;1.15;;;;;;;12.27;93.57;101165.13;4976546;28;20050;-57
2023/06/29 07:44:31;;;;;;;2.85;1.13;;;;;;;12.19;94.65;101159.94;4976393;28;20105;-58
2023/06/29 07:46:57;;;;;;;1.52;0.80;;;;;;;12.29;94.08;101157.66;4976374;28;20485;-58
2023/06/29 07:49:23;;;;;;;1.75;0.90;;;;;;;12.29;93.31;101154.97;4976362;28;20030;-57
2023/06/29 07:51:49;;;;;;;4.05;0.95;;;;;;;12.28;93.72;101155.19;4976608;28;20077;-57
2023/06/29 07:54:17;;;;;;;2.92;1.02;;;;;;;12.21;93.87;101155.19;4976274;28;20031;-57
2023/06/29 07:56:43;;;;;;;2.55;1.00;;;;;;;12.19;93.86;101154.59;4976049;28;20070;-57
2023/06/29 07:59:09;;;;;;;2.22;0.95;;;;;;;12.08;94.41;101157.91;4975626;28;20027;-57
2023/06/29 08:01:38;;;;;;;3.63;0.95;;;;;;;12.21;94.18;101159.72;4976070;28;20034;-58
2023/06/29 08:04:06;;;;;;;2.72;0.80;;;;;;;12.15;94.86;101156.03;4976393;28;20078;-58
2023/06/29 08:06:34;;;;;;;3.97;1.23;;;;;;;12.18;94.53;101161.00;4975958;28;20360;-57
2023/06/29 08:09:00;;;;;;;2.53;0.80;;;;;;;12.15;94.47;101161.41;4976098;28;20023;-58
2023/06/29 08:11:27;;;;;;;2.60;0.98;;;;;;;12.22;94.15;101164.91;4975996;28;20019;-58
2023/06/29 08:13:53;;;;;;;3.17;0.98;;;;;;;12.18;94.64;101165.53;4975841;28;20061;-58
2023/06/29 08:16:21;;;;;;;3.25;1.08;;;;;;;12.17;95.24;101158.53;4975819;28;20027;-58
2023/06/29 08:18:47;;;;;;;1.95;1.08;;;;;;;12.19;95.05;101157.28;4976004;28;20046;-58
2023/06/29 08:21:13;;;;;;;3.15;0.95;;;;;;;12.19;95.28;101159.94;4975661;28;20122;-57
2023/06/29 08:23:40;;;;;;;1.25;1.02;;;;;;;12.14;95.12;101159.75;4976065;28;20105;-57
2023/06/29 08:26:06;;;;;;;3.13;0.90;;;;;;;12.11;95.02;101163.69;4975587;28;20069;-57
2023/06/29 08:28:32;;;;;;;4.03;1.67;;;;;;;12.18;95.18;101163.69;4975810;28;20135;-58
2023/06/29 08:30:58;;;;;;;2.15;1.10;;;;;;;12.14;95.26;101168.63;4975790;28;20030;-58
2023/06/29 08:33:24;;;;;;;5.28;1.33;;;;;;;12.17;94.94;101158.53;4975464;28;20027;-58
2023/06/29 08:35:51;;;;;;;3.10;1.10;;;;;;;12.19;95.55;101167.19;4975829;28;20034;-57
2023/06/29 08:38:17;;;;;;;3.95;1.20;;;;;;;12.18;95.17;101166.34;4975428;28;20047;-58
2023/06/29 08:40:48;;;;;;;2.40;1.00;;;;;;;12.20;94.34;101166.97;4975715;28;20026;-58
2023/06/29 08:43:16;;;;;;;2.97;1.00;;;;;;;12.23;94.88;101168.41;4975329;28;20023;-58
2023/06/29 08:45:43;;;;;;;3.67;1.38;;;;;;;12.20;94.66;101166.13;4975273;28;20062;-58
2023/06/29 08:48:12;;;;;;;2.97;0.90;;;;;;;12.27;93.97;101175.84;4975173;28;20047;-58
2023/06/29 08:50:44;;;;;;;2.13;1.00;;;;;;;12.20;94.17;101177.69;4975172;28;20479;-57
2023/06/29 08:53:12;;;;;;;4.18;0.98;;;;;;;12.17;94.39;101175.44;4975664;28;20023;-58
2023/06/29 08:55:39;;;;;;;2.63;1.00;;;;;;;12.22;94.08;101175.66;4975315;28;20026;-58
2023/06/29 08:58:06;;;;;;;1.80;1.08;;;;;;;12.22;94.24;101164.91;4975074;28;20023;-58
2023/06/29 09:00:32;;;;;;;2.55;0.93;;;;;;;12.27;93.56;101173.16;4974979;28;20467;-58
2023/06/29 09:02:58;;;;;;;1.52;0.75;;;;;;;12.26;93.30;101173.34;4975267;28;20122;-58
2023/06/29 09:05:25;;;;;;;2.00;0.80;;;;;;;12.19;93.44;101169.88;4975163;28;20035;-58
2023/06/29 09:07:53;;;;;;;1.80;0.90;;;;;;;12.07;94.22;101175.03;4974847;28;20043;-58
2023/06/29 09:10:19;;;;;;;1.45;1.08;;;;;;;11.97;95.02;101175.44;4974518;28;20033;-57
2023/06/29 09:12:45;;;;;;;1.55;1.10;;;;;;;12.03;94.91;101168.44;4974704;28;20065;-58
2023/06/29 09:15:13;;;;;;;5.68;0.90;;;;;;;12.09;93.93;101164.91;4974879;28;20031;-58
2023/06/29 09:17:45;;;;;;;3.33;1.00;;;;;;;12.07;94.48;101167.00;4974818;28;20475;-58
2023/06/29 09:20:15;;;;;;;2.60;0.88;;;;;;;12.13;94.82;101169.66;4974754;28;20086;-58
2023/06/29 09:22:43;;;;;;;2.50;1.08;;;;;;;12.19;95.62;101169.88;4975164;28;20364;-58
2023/06/29 09:25:10;;;;;;;3.28;1.35;;;;;;;12.17;95.75;101170.09;4974870;28;20113;-58
2023/06/29 09:27:37;;;;;;;1.90;1.02;;;;;;;12.09;96.29;101173.78;4974949;28;20027;-58
2023/06/29 09:30:06;;;;;;;3.17;0.98;;;;;;;12.08;95.80;101172.13;4974404;28;20037;-58
2023/06/29 09:32:38;;;;;;;4.53;1.00;;;;;;;12.08;95.84;101168.63;4974445;28;20027;-58
2023/06/29 09:35:08;;;;;;;3.35;1.30;;;;;;;12.07;95.94;101164.31;4974495;28;20030;-57
2023/06/29 09:37:36;;;;;;;1.38;1.02;;;;;;;12.01;95.75;101149.88;4974857;28;20035;-58
2023/06/29 09:40:23;;;;;;;2.20;1.25;;;;;;;11.99;95.28;101161.81;4974493;28;20026;-58
2023/06/29 09:42:50;;;;;;;1.65;1.00;;;;;;;11.95;95.45;101155.25;4953167;29;20042;-58
2023/06/29 09:45:16;;;;;;;2.53;0.73;;;;;;;11.92;95.43;101156.47;4952808;29;20050;-57
2023/06/29 09:47:49;;;;;;;2.42;0.95;;;;;;;12.01;94.95;101157.91;4953705;29;20050;-57
2023/06/29 09:50:20;;;;;;;2.28;0.88;;;;;;;12.11;94.42;101155.63;4953220;29;20027;-57
2023/06/29 09:52:48;;;;;;;2.10;1.20;;;;;;;12.11;94.73;101149.44;4953508;29;20027;-55
2023/06/29 09:55:15;;;;;;;2.80;0.90;;;;;;;12.07;95.41;101153.56;4953067;29;20046;-56
2023/06/29 09:57:43;;;;;;;1.35;0.80;;;;;;;12.11;95.51;101160.19;4952795;29;20062;-56
2023/06/29 10:00:13;;;;;;;2.05;0.98;;;;;;;12.09;95.05;101163.06;4952921;29;20071;-56
2023/06/29 10:02:40;;;;;;;1.60;0.80;;;;;;;12.04;95.17;101153.97;4952825;29;20106;-56
2023/06/29 10:05:08;;;;;;;2.78;0.90;;;;;;;11.95;95.37;101150.69;4952695;29;20361;-56
2023/06/29 10:07:37;;;;;;;1.92;0.70;;;;;;;12.07;94.50;101148.22;4952597;29;20037;-56
2023/06/29 10:10:05;;;;;;;2.78;1.10;;;;;;;12.12;94.00;101156.47;4952471;29;20035;-56
2023/06/29 10:12:33;;;;;;;2.15;0.70;;;;;;;12.10;94.21;101150.47;4952678;29;20039;-56
2023/06/29 10:15:08;;;;;;;2.72;0.95;;;;;;;11.94;94.96;101150.88;4952695;29;20036;-56
2023/06/29 10:17:56;;;;;;;1.75;0.90;;;;;;;11.93;95.62;101151.91;4952684;29;20027;-57
2023/06/29 10:20:25;;;;;;;4.40;1.13;;;;;;;11.87;95.93;101149.03;4964545;28;20118;-56
2023/06/29 10:22:55;;;;;;;2.42;1.15;;;;;;;11.85;95.78;101153.78;4960850;28;20117;-56
2023/06/29 10:25:23;;;;;;;4.20;1.23;;;;;;;11.94;95.58;101156.25;4978013;28;20117;-56
2023/06/29 10:27:54;;;;;;;1.52;0.90;;;;;;;11.89;96.17;101152.34;4977773;28;20077;-56
2023/06/29 10:30:21;;;;;;;1.45;1.10;;;;;;;12.06;95.01;101163.50;4978085;28;20126;-56
2023/06/29 10:32:51;;;;;;;2.30;0.98;;;;;;;12.04;95.02;101153.97;4977771;28;20457;-56
2023/06/29 10:35:18;;;;;;;2.53;1.20;;;;;;;12.03;94.70;101157.69;4977878;28;20120;-56
2023/06/29 10:37:48;;;;;;;2.17;1.00;;;;;;;12.14;94.14;101157.06;4960302;28;20432;-57
2023/06/29 10:40:24;;;;;;;2.33;0.95;;;;;;;12.06;94.33;101163.50;4977542;28;20050;-56
2023/06/29 10:42:57;;;;;;;3.28;0.98;;;;;;;12.11;93.83;101165.56;4977535;28;20038;-56
2023/06/29 10:45:23;;;;;;;3.70;1.20;;;;;;;12.16;93.44;101157.69;4977342;28;20054;-57
2023/06/29 10:48:12;;;;;;;2.50;1.00;;;;;;;12.21;93.44;101167.78;4977375;28;20023;-56
2023/06/29 10:50:47;;;;;;;2.72;1.33;;;;;;;12.10;93.61;101170.09;4977410;28;20058;-56
2023/06/29 10:53:17;;;;;;;3.80;1.20;;;;;;;11.97;94.64;101163.91;4977536;28;20472;-56
2023/06/29 10:55:51;;;;;;;3.47;1.15;;;;;;;12.07;94.65;101165.13;4977339;28;20111;-56
2023/06/29 10:58:19;;;;;;;2.08;1.10;;;;;;;12.04;94.85;101160.16;4977466;28;20085;-56
2023/06/29 11:00:46;;;;;;;1.48;0.93;;;;;;;12.08;94.56;101166.78;4977194;28;20045;-56
2023/06/29 11:03:13;;;;;;;3.15;1.58;;;;;;;11.99;94.77;101162.66;4977283;28;20427;-56
2023/06/29 11:05:40;;;;;;;5.20;1.38;;;;;;;11.98;94.93;101161.00;4977364;28;20127;-56
2023/06/29 11:08:07;;;;;;;2.55;1.10;;;;;;;11.96;95.19;101160.38;4977261;28;20027;-57
2023/06/29 11:10:35;;;;;;;4.18;1.15;;;;;;;11.98;94.42;101155.63;4976896;28;20106;-56
2023/06/29 11:13:07;;;;;;;3.30;1.08;;;;;;;12.04;94.42;101157.47;4977067;28;20098;-56
2023/06/29 11:15:34;;;;;;;3.33;1.20;;;;;;;12.02;95.20;101158.75;4976923;28;20034;-56
2023/06/29 11:18:06;;;;;;;3.08;1.40;;;;;;;12.06;95.70;101154.63;4976896;28;20038;-56
2023/06/29 11:20:36;;;;;;;9.60;1.60;;;;;;;12.16;95.33;101157.69;4977211;28;20066;-56
2023/06/29 11:23:02;;;;;;;3.03;1.23;;;;;;;12.18;94.32;101150.25;4977097;28;20027;-56
2023/06/29 11:25:32;;;;;;;1.95;1.50;;;;;;;12.15;94.27;101150.66;4976608;28;20161;-56